Terminal Aerodrome Forecast
Issued by NWS St Louis, MO

Home | Current Version | Previous Version | Graphics & Text | Print | Product List | Glossary On
Versions: 1 2 3 4 5 6 7 8 9 10 11 12 13 14 15 16 17 18 19 20 21 22 23 24 25 26 27 28 29 30 31 32
956
FTUS43 KLSX 301738
TAFSTL
TAF
KSTL 301738Z 3018/0124 16010KT P6SM SCT018 BKN025
      TEMPO 3018/3019 BKN018
     FM302000 20010KT P6SM BKN035
      TEMPO 3022/0101 4SM TSRA BR BKN028CB
     FM010300 25005KT P6SM SCT040
     FM010600 27003KT 5SM BR SCT060
     FM011500 29009KT P6SM BKN040=

USA.gov is the U.S. government's official web portal to all federal, state and local government web resources and services.